createdAt,value
2019-03-19T00:00:31.155Z,0.00
2019-03-19T00:01:31.103Z,0.00
2019-03-19T00:02:31.100Z,0.00
2019-03-19T00:03:31.085Z,0.00
2019-03-19T00:04:31.068Z,4.00
2019-03-19T00:05:31.091Z,4.00
2019-03-19T00:06:31.052Z,4.00
2019-03-19T00:07:31.039Z,4.00
2019-03-19T00:08:31.040Z,4.00
2019-03-19T00:09:31.014Z,0.00
2019-03-19T00:10:31.000Z,0.00
2019-03-19T00:11:31.025Z,0.00
2019-03-19T00:12:30.987Z,0.00
2019-03-19T00:13:30.975Z,0.00
2019-03-19T00:14:30.975Z,0.00
2019-03-19T00:15:30.960Z,0.00
2019-03-19T00:16:30.975Z,0.00
2019-03-19T00:17:30.923Z,0.00
2019-03-19T00:18:30.914Z,0.00
2019-03-19T00:19:30.916Z,0.00
2019-03-19T00:20:30.904Z,0.00
2019-03-19T00:21:30.900Z,0.00
2019-03-19T00:22:30.879Z,0.00
2019-03-19T00:23:30.866Z,0.00
2019-03-19T00:24:30.847Z,0.00
2019-03-19T00:25:30.845Z,0.00
2019-03-19T00:26:30.848Z,0.00
2019-03-19T00:27:30.812Z,0.00
2019-03-19T00:28:30.801Z,0.00
2019-03-19T00:29:30.795Z,0.00
2019-03-19T00:30:30.783Z,0.00
2019-03-19T00:31:30.815Z,0.00
2019-03-19T00:32:30.759Z,0.00
2019-03-19T00:33:30.751Z,0.00
2019-03-19T00:34:30.745Z,0.00
2019-03-19T00:35:30.735Z,0.00
2019-03-19T00:36:30.724Z,0.00
2019-03-19T00:37:30.731Z,0.00
2019-03-19T00:38:30.696Z,0.00
2019-03-19T00:39:30.685Z,0.00
2019-03-19T00:40:30.731Z,0.00
2019-03-19T00:41:30.677Z,0.00
2019-03-19T00:42:30.747Z,0.00
2019-03-19T00:43:30.658Z,0.00
2019-03-19T00:44:30.636Z,0.00
2019-03-19T00:45:30.625Z,0.00
2019-03-19T00:46:30.675Z,0.00
2019-03-19T00:47:30.624Z,0.00
2019-03-19T00:48:30.600Z,0.00
2019-03-19T00:49:30.579Z,0.00
2019-03-19T00:50:30.566Z,0.00
2019-03-19T00:51:30.560Z,0.00
2019-03-19T00:52:30.575Z,0.00
2019-03-19T00:53:30.531Z,0.00
2019-03-19T00:54:30.532Z,0.00
2019-03-19T00:55:40.259Z,0.00
2019-03-19T00:56:31.515Z,0.00
2019-03-19T00:57:30.521Z,0.00
2019-03-19T00:58:30.502Z,0.00
2019-03-19T00:59:30.479Z,0.00
2019-03-19T01:00:30.459Z,0.00
2019-03-19T01:01:30.462Z,0.00
2019-03-19T01:02:30.442Z,0.00
2019-03-19T01:03:30.444Z,0.00
2019-03-19T01:04:30.411Z,0.00
2019-03-19T01:05:30.402Z,0.00
2019-03-19T01:06:30.402Z,0.00
2019-03-19T01:07:30.380Z,0.00
2019-03-19T01:08:30.396Z,0.00
2019-03-19T01:09:30.359Z,0.00
2019-03-19T01:10:30.353Z,0.00
2019-03-19T01:11:30.338Z,0.00
2019-03-19T01:12:30.325Z,0.00
2019-03-19T01:13:30.354Z,0.00
2019-03-19T01:14:30.303Z,0.00
2019-03-19T01:15:30.294Z,0.00
2019-03-19T01:16:30.294Z,0.00
2019-03-19T01:17:30.277Z,0.00
2019-03-19T01:18:30.300Z,0.00
2019-03-19T01:19:30.253Z,0.00
2019-03-19T01:20:30.247Z,0.00
2019-03-19T01:21:30.231Z,0.00
2019-03-19T01:22:30.220Z,0.00
2019-03-19T01:23:30.247Z,0.00
2019-03-19T01:24:30.198Z,0.00
2019-03-19T01:25:30.189Z,0.00
2019-03-19T01:26:30.187Z,0.00
2019-03-19T01:27:30.164Z,0.00
2019-03-19T01:28:30.181Z,0.00
2019-03-19T01:29:30.145Z,0.00
2019-03-19T01:30:30.134Z,0.00
2019-03-19T01:31:30.130Z,0.00
2019-03-19T01:32:30.120Z,0.00
2019-03-19T01:33:30.165Z,0.00
2019-03-19T01:34:30.091Z,0.00
2019-03-19T01:35:30.087Z,0.00
2019-03-19T01:36:30.071Z,0.00
2019-03-19T01:37:30.061Z,0.00
2019-03-19T01:38:30.048Z,0.00
2019-03-19T01:39:30.061Z,0.00
2019-03-19T01:40:30.028Z,0.00
2019-03-19T01:41:30.016Z,0.00
2019-03-19T01:42:30.001Z,0.00
2019-03-19T01:43:29.992Z,0.00
2019-03-19T01:44:30.009Z,0.00
2019-03-19T01:45:29.970Z,0.00
2019-03-19T01:46:29.961Z,0.00
2019-03-19T01:47:29.963Z,0.00
2019-03-19T01:48:29.946Z,0.00
2019-03-19T01:49:29.965Z,0.00
2019-03-19T01:50:29.915Z,0.00
2019-03-19T01:51:29.920Z,0.00
2019-03-19T01:52:29.897Z,0.00
2019-03-19T01:53:29.888Z,0.00
2019-03-19T01:54:29.908Z,0.00
2019-03-19T01:55:29.870Z,0.00
2019-03-19T01:56:29.854Z,0.00
2019-03-19T01:57:29.845Z,0.00
2019-03-19T01:58:29.839Z,0.00
2019-03-19T01:59:29.902Z,0.00
2019-03-19T02:00:29.809Z,0.00
2019-03-19T02:01:29.800Z,0.00
2019-03-19T02:02:29.789Z,0.00
2019-03-19T02:03:29.778Z,0.00
2019-03-19T02:04:29.802Z,0.00
2019-03-19T02:05:29.763Z,0.00
2019-03-19T02:06:29.753Z,0.00
2019-03-19T02:07:29.730Z,0.00
2019-03-19T02:08:29.732Z,0.00
2019-03-19T02:09:29.744Z,0.00
2019-03-19T02:10:29.736Z,0.00
2019-03-19T02:11:29.687Z,0.00
2019-03-19T02:12:29.682Z,0.00
2019-03-19T02:13:29.679Z,0.00
2019-03-19T02:14:29.658Z,0.00
2019-03-19T02:15:29.670Z,0.00
2019-03-19T02:16:29.655Z,0.00
2019-03-19T02:17:29.623Z,0.00
2019-03-19T02:18:29.615Z,0.00
2019-03-19T02:19:29.603Z,0.00
2019-03-19T02:20:29.613Z,0.00
2019-03-19T02:21:29.586Z,0.00
2019-03-19T02:22:29.567Z,0.00
2019-03-19T02:23:29.559Z,0.00
2019-03-19T02:24:29.549Z,0.00
2019-03-19T02:25:29.566Z,0.00
2019-03-19T02:26:29.525Z,0.00
2019-03-19T02:27:29.532Z,0.00
2019-03-19T02:28:29.503Z,0.00
2019-03-19T02:29:29.504Z,0.00
2019-03-19T02:30:29.524Z,0.00
2019-03-19T02:31:29.474Z,0.00
2019-03-19T02:32:29.472Z,0.00
2019-03-19T02:33:29.449Z,0.00
2019-03-19T02:34:29.446Z,0.00
2019-03-19T02:35:29.431Z,0.00
2019-03-19T02:36:29.484Z,0.00
2019-03-19T02:37:29.419Z,0.00
2019-03-19T02:38:29.400Z,0.00
2019-03-19T02:39:29.387Z,0.00
2019-03-19T02:40:29.403Z,0.00
2019-03-19T02:41:29.393Z,0.00
2019-03-19T02:42:29.355Z,0.00
2019-03-19T02:43:29.343Z,0.00
2019-03-19T02:44:29.434Z,0.00
2019-03-19T02:45:29.319Z,0.00
2019-03-19T02:46:29.347Z,0.00
2019-03-19T02:47:29.309Z,0.00
2019-03-19T02:48:29.290Z,0.00
2019-03-19T02:49:29.279Z,0.00
2019-03-19T02:50:29.275Z,0.00
2019-03-19T02:51:29.282Z,0.00
2019-03-19T02:52:29.259Z,0.00
2019-03-19T02:53:29.715Z,0.00
2019-03-19T02:54:29.230Z,0.00
2019-03-19T02:55:29.225Z,0.00
2019-03-19T02:56:33.063Z,0.00
2019-03-19T02:57:29.221Z,0.00
2019-03-19T02:58:29.181Z,0.00
2019-03-19T02:59:29.184Z,0.00
2019-03-19T03:00:29.160Z,0.00
2019-03-19T03:01:29.179Z,0.00
2019-03-19T03:02:29.172Z,0.00
2019-03-19T03:03:29.125Z,0.00
2019-03-19T03:04:29.124Z,0.00
2019-03-19T03:05:29.105Z,0.00
2019-03-19T03:06:29.122Z,0.00
2019-03-19T03:07:29.089Z,0.00
2019-03-19T03:08:29.114Z,0.00
2019-03-19T03:09:29.071Z,0.00
2019-03-19T03:10:29.048Z,0.00
2019-03-19T03:11:29.039Z,0.00
2019-03-19T03:12:29.033Z,0.00
2019-03-19T03:13:29.052Z,0.00
2019-03-19T03:14:29.017Z,0.00
2019-03-19T03:15:28.997Z,0.00
2019-03-19T03:16:28.982Z,0.00
2019-03-19T03:17:29.000Z,0.00
2019-03-19T03:18:28.975Z,0.00
2019-03-19T03:19:28.955Z,0.00
2019-03-19T03:20:28.944Z,0.00
2019-03-19T03:21:28.927Z,0.00
2019-03-19T03:22:28.979Z,0.00
2019-03-19T03:23:28.915Z,0.00
2019-03-19T03:24:28.895Z,0.00
2019-03-19T03:25:28.883Z,0.00
2019-03-19T03:26:28.893Z,0.00
2019-03-19T03:27:28.862Z,0.00
2019-03-19T03:28:28.887Z,0.00
2019-03-19T03:29:28.853Z,0.00
2019-03-19T03:30:28.837Z,0.00
2019-03-19T03:31:28.822Z,0.00
2019-03-19T03:32:28.813Z,0.00
2019-03-19T03:33:28.829Z,0.00
2019-03-19T03:34:28.805Z,0.00
2019-03-19T03:35:28.806Z,0.00
2019-03-19T03:36:28.781Z,0.00
2019-03-19T03:37:28.758Z,0.00
2019-03-19T03:38:28.769Z,0.00
2019-03-19T03:39:28.735Z,0.00
2019-03-19T03:40:28.721Z,0.00
2019-03-19T03:41:28.717Z,0.00
2019-03-19T03:42:28.697Z,0.00
2019-03-19T03:43:28.810Z,0.00
2019-03-19T03:44:28.700Z,0.00
2019-03-19T03:45:28.779Z,0.00
2019-03-19T03:46:28.657Z,0.00
2019-03-19T03:47:28.689Z,0.00
2019-03-19T03:48:28.663Z,0.00
2019-03-19T03:49:28.676Z,0.00
2019-03-19T03:50:28.611Z,0.00
2019-03-19T03:51:28.668Z,0.00
2019-03-19T03:52:28.598Z,0.00
2019-03-19T03:53:28.617Z,0.00
2019-03-19T03:54:28.568Z,0.00
2019-03-19T03:55:31.114Z,0.00
2019-03-19T03:56:28.541Z,0.00
2019-03-19T03:57:28.561Z,0.00
2019-03-19T03:58:28.525Z,0.00
2019-03-19T03:59:28.550Z,0.00
2019-03-19T04:00:28.511Z,0.00
2019-03-19T04:01:28.491Z,0.00
2019-03-19T04:02:28.482Z,0.00
2019-03-19T04:03:28.507Z,0.00
2019-03-19T04:04:28.478Z,0.00
2019-03-19T04:05:28.467Z,0.00
2019-03-19T04:06:28.431Z,0.00
2019-03-19T04:07:28.420Z,0.00
2019-03-19T04:08:28.411Z,0.00
2019-03-19T04:09:28.439Z,0.00
2019-03-19T04:10:28.390Z,0.00
2019-03-19T04:11:28.377Z,0.00
2019-03-19T04:12:28.371Z,0.00
2019-03-19T04:13:28.360Z,0.00
2019-03-19T04:14:28.347Z,0.00
2019-03-19T04:15:28.363Z,0.00
2019-03-19T04:16:28.321Z,0.00
2019-03-19T04:17:28.318Z,0.00
2019-03-19T04:18:28.308Z,0.00
2019-03-19T04:19:28.293Z,0.00
2019-03-19T04:20:28.300Z,0.00
2019-03-19T04:21:28.268Z,0.00
2019-03-19T04:22:28.268Z,0.00
2019-03-19T04:23:28.244Z,0.00
2019-03-19T04:24:28.232Z,0.00
2019-03-19T04:25:28.258Z,0.00
2019-03-19T04:26:28.218Z,0.00
2019-03-19T04:27:28.201Z,0.00
2019-03-19T04:28:28.194Z,0.00
2019-03-19T04:29:28.183Z,0.00
2019-03-19T04:30:28.233Z,0.00
2019-03-19T04:31:28.163Z,0.00
2019-03-19T04:32:28.152Z,0.00
2019-03-19T04:33:28.145Z,0.00
2019-03-19T04:34:28.123Z,0.00
2019-03-19T04:35:28.116Z,0.00
2019-03-19T04:36:28.134Z,0.00
2019-03-19T04:37:28.100Z,0.00
2019-03-19T04:38:28.088Z,0.00
2019-03-19T04:39:28.078Z,0.00
2019-03-19T04:40:28.082Z,0.00
2019-03-19T04:41:28.045Z,0.00
2019-03-19T04:42:28.038Z,0.00
2019-03-19T04:43:28.022Z,0.00
2019-03-19T04:44:28.017Z,0.00
2019-03-19T04:45:28.028Z,0.00
2019-03-19T04:46:27.989Z,0.00
2019-03-19T04:47:27.987Z,0.00
2019-03-19T04:48:27.968Z,0.00
2019-03-19T04:49:27.955Z,0.00
2019-03-19T04:50:27.944Z,0.00
2019-03-19T04:51:27.964Z,0.00
2019-03-19T04:52:27.923Z,0.00
2019-03-19T04:53:27.913Z,0.00
2019-03-19T04:54:27.900Z,0.00
2019-03-19T04:55:27.890Z,0.00
2019-03-19T04:56:27.910Z,0.00
2019-03-19T04:57:27.870Z,0.00
2019-03-19T04:58:27.865Z,0.00
2019-03-19T04:59:27.848Z,0.00
2019-03-19T05:00:27.838Z,0.00
2019-03-19T05:01:27.850Z,0.00
2019-03-19T05:02:27.814Z,0.00
2019-03-19T05:03:27.809Z,0.00
2019-03-19T05:04:27.798Z,0.00
2019-03-19T05:05:27.784Z,0.00
2019-03-19T05:06:27.798Z,0.00
2019-03-19T05:07:27.766Z,0.00
2019-03-19T05:08:27.746Z,0.00
2019-03-19T05:09:27.743Z,0.00
2019-03-19T05:10:27.781Z,0.00
2019-03-19T05:11:27.737Z,0.00
2019-03-19T05:12:27.702Z,0.00
2019-03-19T05:13:27.698Z,0.00
2019-03-19T05:14:27.687Z,0.00
2019-03-19T05:15:27.679Z,0.00
2019-03-19T05:16:27.697Z,0.00
2019-03-19T05:17:27.677Z,0.00
2019-03-19T05:18:27.637Z,0.00
2019-03-19T05:19:27.625Z,4.00
2019-03-19T05:20:27.616Z,0.00
2019-03-19T05:21:27.607Z,0.00
2019-03-19T05:22:27.630Z,0.00
2019-03-19T05:23:27.582Z,4.00
2019-03-19T05:24:27.569Z,4.00
2019-03-19T05:25:27.560Z,0.00
2019-03-19T05:26:27.550Z,4.00
2019-03-19T05:27:37.084Z,4.00
2019-03-19T05:28:28.528Z,4.00
2019-03-19T05:29:27.515Z,4.00
2019-03-19T05:30:27.504Z,8.00
2019-03-19T05:31:27.495Z,4.00
2019-03-19T05:32:27.505Z,8.00
2019-03-19T05:33:27.477Z,8.00
2019-03-19T05:34:27.476Z,8.00
2019-03-19T05:35:27.451Z,8.00
2019-03-19T05:36:27.441Z,12.00
2019-03-19T05:37:27.458Z,12.00
2019-03-19T05:38:27.416Z,8.00
2019-03-19T05:39:27.406Z,12.00
2019-03-19T05:40:27.403Z,12.00
2019-03-19T05:41:27.386Z,16.00
2019-03-19T05:42:27.446Z,16.00
2019-03-19T05:43:27.360Z,16.00
2019-03-19T05:44:27.355Z,16.00
2019-03-19T05:45:27.344Z,20.00
2019-03-19T05:46:27.328Z,20.00
2019-03-19T05:47:36.785Z,20.00
2019-03-19T05:48:28.329Z,24.00
2019-03-19T05:49:27.409Z,24.00
2019-03-19T05:50:27.304Z,24.00
2019-03-19T05:51:27.384Z,28.00
2019-03-19T05:52:27.301Z,32.00
2019-03-19T05:53:27.313Z,32.00
2019-03-19T05:54:27.243Z,32.00
2019-03-19T05:55:27.233Z,36.00
2019-03-19T05:56:27.225Z,36.00
2019-03-19T05:57:27.207Z,36.00
2019-03-19T05:58:27.245Z,36.00
2019-03-19T05:59:27.189Z,40.00
2019-03-19T06:00:27.187Z,40.00
2019-03-19T06:01:27.173Z,44.00
2019-03-19T06:02:27.151Z,44.00
2019-03-19T06:03:27.171Z,48.00
2019-03-19T06:04:27.130Z,48.00
2019-03-19T06:05:27.126Z,48.00
2019-03-19T06:06:27.109Z,48.00
2019-03-19T06:07:27.148Z,52.00
2019-03-19T06:08:27.121Z,52.00
2019-03-19T06:09:27.140Z,52.00
2019-03-19T06:10:27.063Z,56.00
2019-03-19T06:11:27.063Z,56.00
2019-03-19T06:12:27.041Z,56.00
2019-03-19T06:13:27.060Z,60.00
2019-03-19T06:14:27.023Z,60.00
2019-03-19T06:15:27.012Z,60.00
2019-03-19T06:16:26.999Z,60.00
2019-03-19T06:17:26.994Z,68.00
2019-03-19T06:18:35.200Z,68.00
2019-03-19T06:19:27.997Z,68.00
2019-03-19T06:20:26.959Z,68.00
2019-03-19T06:21:26.946Z,72.00
2019-03-19T06:22:26.996Z,72.00
2019-03-19T06:23:26.920Z,72.00
2019-03-19T06:24:26.936Z,72.00
2019-03-19T06:25:26.918Z,76.00
2019-03-19T06:26:26.888Z,76.00
2019-03-19T06:27:26.876Z,76.00
2019-03-19T06:28:26.865Z,80.00
2019-03-19T06:29:26.882Z,80.00
2019-03-19T06:30:26.847Z,80.00
2019-03-19T06:31:26.833Z,84.00
2019-03-19T06:32:26.826Z,84.00
2019-03-19T06:33:26.813Z,84.00
2019-03-19T06:34:26.843Z,88.00
2019-03-19T06:35:26.795Z,88.00
2019-03-19T06:36:26.787Z,92.00
2019-03-19T06:37:26.771Z,92.00
2019-03-19T06:38:26.760Z,92.00
2019-03-19T06:39:26.774Z,92.00
2019-03-19T06:40:26.739Z,96.00
2019-03-19T06:41:26.728Z,96.00
2019-03-19T06:42:26.712Z,96.00
2019-03-19T06:43:26.703Z,100.00
2019-03-19T06:44:26.718Z,100.00
2019-03-19T06:45:26.707Z,100.00
2019-03-19T06:46:26.672Z,104.00
2019-03-19T06:47:26.659Z,104.00
2019-03-19T06:48:26.646Z,104.00
2019-03-19T06:49:26.656Z,104.00
2019-03-19T06:50:28.083Z,108.00
2019-03-19T06:51:26.609Z,104.00
2019-03-19T06:52:26.601Z,108.00
2019-03-19T06:53:26.586Z,108.00
2019-03-19T06:54:26.582Z,112.00
2019-03-19T06:55:26.590Z,108.00
2019-03-19T06:56:26.562Z,112.00
2019-03-19T06:57:26.543Z,112.00
2019-03-19T06:58:26.535Z,112.00
2019-03-19T06:59:26.535Z,112.00
2019-03-19T07:00:26.541Z,112.00
2019-03-19T07:01:26.502Z,116.00
2019-03-19T07:02:26.488Z,116.00
2019-03-19T07:03:26.485Z,116.00
2019-03-19T07:04:26.469Z,120.00
2019-03-19T07:05:26.479Z,120.00
2019-03-19T07:06:26.454Z,120.00
2019-03-19T07:07:26.431Z,120.00
2019-03-19T07:08:26.436Z,124.00
2019-03-19T07:09:26.419Z,124.00
2019-03-19T07:10:26.435Z,124.00
2019-03-19T07:11:26.387Z,124.00
2019-03-19T07:12:26.392Z,128.00
2019-03-19T07:13:26.366Z,128.00
2019-03-19T07:14:26.365Z,128.00
2019-03-19T07:15:26.369Z,132.00
2019-03-19T07:16:26.346Z,132.00
2019-03-19T07:17:26.328Z,132.00
2019-03-19T07:18:26.318Z,132.00
2019-03-19T07:19:26.316Z,132.00
2019-03-19T07:20:26.328Z,136.00
2019-03-19T07:21:26.297Z,136.00
2019-03-19T07:22:26.273Z,136.00
2019-03-19T07:23:26.275Z,140.00
2019-03-19T07:24:26.253Z,136.00
2019-03-19T07:25:26.247Z,140.00
2019-03-19T07:26:26.257Z,140.00
2019-03-19T07:27:26.225Z,144.00
2019-03-19T07:28:26.202Z,144.00
2019-03-19T07:29:26.195Z,144.00
2019-03-19T07:30:26.215Z,148.00
2019-03-19T07:31:30.672Z,152.00
2019-03-19T07:32:27.216Z,152.00
2019-03-19T07:33:26.149Z,152.00
2019-03-19T07:34:26.134Z,152.00
2019-03-19T07:35:26.131Z,152.00
2019-03-19T07:36:26.159Z,152.00
2019-03-19T07:37:26.108Z,156.00
2019-03-19T07:38:26.102Z,156.00
2019-03-19T07:39:26.079Z,156.00
2019-03-19T07:40:26.075Z,156.00
2019-03-19T07:41:26.089Z,156.00
2019-03-19T07:42:26.052Z,160.00
2019-03-19T07:43:26.038Z,160.00
2019-03-19T07:44:26.030Z,164.00
2019-03-19T07:45:26.015Z,164.00
2019-03-19T07:46:26.041Z,164.00
2019-03-19T07:47:26.002Z,168.00
2019-03-19T07:48:25.994Z,168.00
2019-03-19T07:49:25.978Z,168.00
2019-03-19T07:50:25.967Z,168.00
2019-03-19T07:51:26.238Z,172.00
2019-03-19T07:52:25.963Z,172.00
2019-03-19T07:53:25.934Z,172.00
2019-03-19T07:54:25.929Z,172.00
2019-03-19T07:55:25.917Z,176.00
2019-03-19T07:56:25.933Z,176.00
2019-03-19T07:57:25.885Z,176.00
2019-03-19T07:58:36.103Z,180.00
2019-03-19T07:59:26.878Z,180.00
2019-03-19T08:00:25.863Z,184.00
2019-03-19T08:01:25.857Z,184.00
2019-03-19T08:02:25.854Z,184.00
2019-03-19T08:03:25.826Z,188.00
2019-03-19T08:04:25.815Z,192.00
2019-03-19T08:05:33.043Z,192.00
2019-03-19T08:06:26.785Z,192.00
2019-03-19T08:07:25.805Z,192.00
2019-03-19T08:08:25.772Z,196.00
2019-03-19T08:09:25.827Z,196.00
2019-03-19T08:10:25.741Z,200.00
2019-03-19T08:11:25.732Z,200.00
2019-03-19T08:12:25.772Z,204.00
2019-03-19T08:13:25.714Z,204.00
2019-03-19T08:14:25.699Z,208.00
2019-03-19T08:15:25.688Z,212.00
2019-03-19T08:16:27.711Z,208.00
2019-03-19T08:17:25.688Z,212.00
2019-03-19T08:18:25.674Z,212.00
2019-03-19T08:19:25.636Z,216.00
2019-03-19T08:20:25.628Z,216.00
2019-03-19T08:21:25.616Z,220.00
2019-03-19T08:22:25.603Z,220.00
2019-03-19T08:23:25.661Z,224.00
2019-03-19T08:24:25.586Z,224.00
2019-03-19T08:25:25.575Z,228.00
2019-03-19T08:26:25.565Z,228.00
2019-03-19T08:27:25.573Z,228.00
2019-03-19T08:28:25.566Z,232.00
2019-03-19T08:29:25.531Z,232.00
2019-03-19T08:30:25.518Z,236.00
2019-03-19T08:31:25.503Z,240.00
2019-03-19T08:32:25.498Z,240.00
2019-03-19T08:33:25.505Z,244.00
2019-03-19T08:34:25.494Z,248.00
2019-03-19T08:35:25.460Z,252.00
2019-03-19T08:36:25.450Z,252.00
2019-03-19T08:37:25.444Z,256.00
2019-03-19T08:38:26.530Z,256.00
2019-03-19T08:39:25.423Z,260.00
2019-03-19T08:40:25.401Z,268.00
2019-03-19T08:41:25.391Z,276.00
2019-03-19T08:42:25.379Z,276.00
2019-03-19T08:43:25.401Z,280.00
2019-03-19T08:44:27.912Z,284.00
2019-03-19T08:45:25.349Z,284.00
2019-03-19T08:46:25.334Z,284.00
2019-03-19T08:47:25.327Z,292.00
2019-03-19T08:48:25.312Z,300.00
2019-03-19T08:49:25.326Z,304.00
2019-03-19T08:50:25.311Z,308.00
2019-03-19T08:51:25.322Z,308.00
2019-03-19T08:52:25.306Z,308.00
2019-03-19T08:53:25.276Z,312.00
2019-03-19T08:54:25.382Z,312.00
2019-03-19T08:55:25.318Z,316.00
2019-03-19T08:56:25.255Z,324.00
2019-03-19T08:57:25.211Z,328.00
2019-03-19T08:58:25.300Z,340.00
2019-03-19T08:59:25.236Z,344.00
2019-03-19T09:00:25.187Z,348.00
2019-03-19T09:01:25.316Z,360.00
2019-03-19T09:02:25.275Z,376.00
2019-03-19T09:03:25.179Z,384.00
2019-03-19T09:04:25.192Z,388.00
2019-03-19T09:05:25.122Z,384.00
2019-03-19T09:06:25.116Z,356.00
2019-03-19T09:07:25.103Z,380.00
2019-03-19T09:08:25.086Z,408.00
2019-03-19T09:09:25.099Z,408.00
2019-03-19T09:10:25.123Z,416.00
2019-03-19T09:11:25.086Z,420.00
2019-03-19T09:12:25.053Z,488.00
2019-03-19T09:13:25.338Z,552.00
2019-03-19T09:14:25.144Z,600.00
2019-03-19T09:15:25.054Z,612.00
2019-03-19T09:16:24.998Z,540.00
2019-03-19T09:17:24.989Z,528.00
2019-03-19T09:18:24.981Z,348.00
2019-03-19T09:19:24.990Z,520.00
2019-03-19T09:20:24.963Z,580.00
2019-03-19T09:21:24.949Z,472.00
2019-03-19T09:22:29.675Z,416.00
2019-03-19T09:23:25.924Z,372.00
2019-03-19T09:24:24.920Z,324.00
2019-03-19T09:25:24.929Z,332.00
2019-03-19T09:26:24.888Z,376.00
2019-03-19T09:27:24.878Z,476.00
2019-03-19T09:28:24.866Z,844.00
2019-03-19T09:29:25.500Z,828.00
2019-03-19T09:30:24.858Z,688.00
2019-03-19T09:31:24.839Z,528.00
2019-03-19T09:32:24.853Z,572.00
2019-03-19T09:33:24.812Z,508.00
2019-03-19T09:34:24.803Z,460.00
2019-03-19T09:35:26.242Z,520.00
2019-03-19T09:36:24.791Z,524.00
2019-03-19T09:37:24.783Z,456.00
2019-03-19T09:38:24.773Z,388.00
2019-03-19T09:39:24.779Z,356.00
2019-03-19T09:40:24.759Z,340.00
2019-03-19T09:41:24.723Z,364.00
2019-03-19T09:42:24.747Z,344.00
2019-03-19T09:43:24.701Z,328.00
2019-03-19T09:44:24.696Z,340.00
2019-03-19T09:45:24.709Z,372.00
2019-03-19T09:46:24.672Z,396.00
2019-03-19T09:47:24.664Z,460.00
2019-03-19T09:48:24.656Z,588.00
2019-03-19T09:49:24.646Z,624.00
2019-03-19T09:50:24.679Z,720.00
2019-03-19T09:51:24.622Z,720.00
2019-03-19T09:52:24.602Z,708.00
2019-03-19T09:53:24.597Z,1188.00
2019-03-19T09:54:24.585Z,1044.00
2019-03-19T09:55:24.596Z,600.00
2019-03-19T09:56:24.566Z,492.00
2019-03-19T09:57:24.594Z,448.00
2019-03-19T09:58:24.537Z,508.00
2019-03-19T09:59:27.255Z,776.00
2019-03-19T10:00:24.517Z,568.00
2019-03-19T10:01:24.527Z,392.00
2019-03-19T10:02:24.501Z,248.00
2019-03-19T10:03:24.510Z,244.00
2019-03-19T10:04:24.513Z,248.00
2019-03-19T10:05:24.467Z,264.00
2019-03-19T10:06:24.485Z,288.00
2019-03-19T10:07:24.444Z,352.00
2019-03-19T10:08:24.428Z,816.00
2019-03-19T10:09:24.415Z,828.00
2019-03-19T10:10:24.459Z,1420.00
2019-03-19T10:11:24.431Z,3856.00
2019-03-19T10:12:24.386Z,9028.00
2019-03-19T10:13:24.376Z,13408.00
2019-03-19T10:14:24.360Z,15552.00
2019-03-19T10:15:24.355Z,16448.00
2019-03-19T10:16:24.348Z,16928.00
2019-03-19T10:17:24.362Z,17472.00
2019-03-19T10:18:24.361Z,14236.00
2019-03-19T10:19:24.311Z,16864.00
2019-03-19T10:20:24.297Z,16832.00
2019-03-19T10:21:24.298Z,16672.00
2019-03-19T10:22:24.311Z,16544.00
2019-03-19T10:23:24.272Z,16352.00
2019-03-19T10:24:24.258Z,16192.00
2019-03-19T10:25:24.239Z,16064.00
2019-03-19T10:26:24.226Z,16096.00
2019-03-19T10:27:24.241Z,15936.00
2019-03-19T10:28:24.204Z,15936.00
2019-03-19T10:29:24.197Z,15680.00
2019-03-19T10:30:24.235Z,15488.00
2019-03-19T10:31:24.178Z,15424.00
2019-03-19T10:32:24.192Z,15360.00
2019-03-19T10:33:24.203Z,15020.00
2019-03-19T10:34:24.147Z,14620.00
2019-03-19T10:35:24.130Z,14156.00
2019-03-19T10:36:24.137Z,13632.00
2019-03-19T10:37:24.102Z,13540.00
2019-03-19T10:38:24.123Z,13412.00
2019-03-19T10:39:24.090Z,13260.00
2019-03-19T10:40:24.073Z,13340.00
2019-03-19T10:41:24.065Z,13452.00
2019-03-19T10:42:24.055Z,13872.00
2019-03-19T10:43:24.061Z,2436.00
2019-03-19T10:44:24.031Z,1104.00
2019-03-19T10:45:24.025Z,1260.00
2019-03-19T10:46:24.015Z,1072.00
2019-03-19T10:47:24.021Z,1100.00
2019-03-19T10:48:24.011Z,724.00
2019-03-19T10:49:24.009Z,21056.00
2019-03-19T10:50:23.969Z,15776.00
2019-03-19T10:51:23.955Z,20288.00
2019-03-19T10:52:23.938Z,21504.00
2019-03-19T10:53:23.965Z,19648.00
2019-03-19T10:54:23.923Z,16384.00
2019-03-19T10:55:23.924Z,11068.00
2019-03-19T10:56:23.921Z,2772.00
2019-03-19T10:57:23.896Z,2808.00
2019-03-19T10:58:23.974Z,2364.00
2019-03-19T10:59:23.894Z,1692.00
2019-03-19T11:00:23.924Z,1780.00
2019-03-19T11:01:23.847Z,2172.00
2019-03-19T11:02:23.822Z,1968.00
2019-03-19T11:03:23.813Z,1672.00
2019-03-19T11:04:23.943Z,1552.00
2019-03-19T11:05:23.795Z,1460.00
2019-03-19T11:06:23.777Z,1800.00
2019-03-19T11:07:23.779Z,1584.00
2019-03-19T11:08:23.792Z,1492.00
2019-03-19T11:09:23.742Z,1524.00
2019-03-19T11:10:23.769Z,1504.00
2019-03-19T11:11:23.720Z,2024.00
2019-03-19T11:12:23.712Z,1436.00
2019-03-19T11:13:23.764Z,1584.00
2019-03-19T11:14:23.757Z,1672.00
2019-03-19T11:15:23.681Z,1052.00
2019-03-19T11:16:23.668Z,864.00
2019-03-19T11:17:23.666Z,776.00
2019-03-19T11:18:23.645Z,668.00
2019-03-19T11:19:23.693Z,648.00
2019-03-19T11:20:23.643Z,788.00
2019-03-19T11:21:23.635Z,864.00
2019-03-19T11:22:23.622Z,916.00
2019-03-19T11:23:23.603Z,1320.00
2019-03-19T11:24:23.583Z,1060.00
2019-03-19T11:25:23.597Z,1052.00
2019-03-19T11:26:23.559Z,1220.00
2019-03-19T11:27:23.572Z,1068.00
2019-03-19T11:28:23.600Z,1700.00
2019-03-19T11:29:23.547Z,1584.00
2019-03-19T11:30:23.544Z,1224.00
2019-03-19T11:31:23.498Z,996.00
2019-03-19T11:32:23.487Z,1488.00
2019-03-19T11:33:23.478Z,1600.00
2019-03-19T11:34:23.505Z,1136.00
2019-03-19T11:35:23.486Z,1424.00
2019-03-19T11:36:23.491Z,1384.00
2019-03-19T11:37:23.431Z,1364.00
2019-03-19T11:38:23.419Z,1276.00
2019-03-19T11:39:23.411Z,1064.00
2019-03-19T11:40:25.645Z,1148.00
2019-03-19T11:41:23.409Z,888.00
2019-03-19T11:42:23.374Z,1340.00
2019-03-19T11:43:23.365Z,1280.00
2019-03-19T11:44:23.356Z,1252.00
2019-03-19T11:45:23.342Z,1220.00
2019-03-19T11:46:23.375Z,1224.00
2019-03-19T11:47:23.323Z,1228.00
2019-03-19T11:48:23.316Z,1216.00
2019-03-19T11:49:23.298Z,628.00
2019-03-19T11:50:23.315Z,572.00
2019-03-19T11:51:23.274Z,616.00
2019-03-19T11:52:23.277Z,608.00
2019-03-19T11:53:23.259Z,544.00
2019-03-19T11:54:23.248Z,556.00
2019-03-19T11:55:23.254Z,668.00
2019-03-19T11:56:23.220Z,692.00
2019-03-19T11:57:23.213Z,1176.00
2019-03-19T11:58:23.202Z,1180.00
2019-03-19T11:59:23.197Z,804.00
2019-03-19T12:00:23.214Z,732.00
2019-03-19T12:01:23.166Z,860.00
2019-03-19T12:02:26.182Z,1320.00
2019-03-19T12:03:23.149Z,840.00
2019-03-19T12:04:23.134Z,1220.00
2019-03-19T12:05:23.152Z,1300.00
2019-03-19T12:06:23.134Z,1036.00
2019-03-19T12:07:23.102Z,776.00
2019-03-19T12:08:23.100Z,752.00
2019-03-19T12:09:23.132Z,1024.00
2019-03-19T12:10:23.071Z,1092.00
2019-03-19T12:11:23.162Z,1068.00
2019-03-19T12:12:23.047Z,1028.00
2019-03-19T12:13:23.044Z,684.00
2019-03-19T12:14:23.029Z,620.00
2019-03-19T12:15:23.032Z,552.00
2019-03-19T12:16:23.040Z,540.00
2019-03-19T12:17:22.994Z,560.00
2019-03-19T12:18:22.980Z,572.00
2019-03-19T12:19:22.993Z,612.00
2019-03-19T12:20:22.964Z,1028.00
2019-03-19T12:21:23.094Z,1052.00
2019-03-19T12:22:22.943Z,1116.00
2019-03-19T12:23:22.925Z,1132.00
2019-03-19T12:24:22.919Z,1116.00
2019-03-19T12:25:22.923Z,1092.00
2019-03-19T12:26:22.919Z,980.00
2019-03-19T12:27:22.902Z,940.00
2019-03-19T12:28:22.898Z,916.00
2019-03-19T12:29:22.860Z,896.00
2019-03-19T12:30:25.961Z,896.00
2019-03-19T12:31:22.873Z,900.00
2019-03-19T12:32:22.854Z,904.00
2019-03-19T12:33:22.825Z,900.00
2019-03-19T12:34:22.812Z,900.00
2019-03-19T12:35:22.800Z,900.00
2019-03-19T12:36:22.785Z,896.00
2019-03-19T12:37:22.807Z,896.00
2019-03-19T12:38:22.784Z,896.00
2019-03-19T12:39:22.754Z,900.00
2019-03-19T12:40:22.741Z,880.00
2019-03-19T12:41:22.756Z,888.00
2019-03-19T12:42:22.713Z,896.00
2019-03-19T12:43:22.732Z,916.00
2019-03-19T12:44:22.701Z,936.00
2019-03-19T12:45:22.722Z,944.00
2019-03-19T12:46:22.665Z,968.00
2019-03-19T12:47:22.735Z,980.00